| time (UTC) | temp F | wind direction | speed knots | gust knots | rain 1hr in | rain 24hr in | rain mn in | humidity % | barometer mb |
| 20260508090007 | 41 | 313 | 0.9 | 3.5 | 0.00 | 0.00 | 0.00 | 90 | 1002.4 |
| 20260508084504 | 41 | 346 | 0.0 | 0.0 | 0.00 | 0.00 | 0.00 | 90 | 1002.4 |
| 20260508082957 | 42 | 346 | 0.0 | 2.6 | 0.00 | 0.00 | 0.00 | 90 | 1002.3 |
| 20260508081456 | 42 | 331 | 0.0 | 1.7 | 0.00 | 0.00 | 0.00 | 90 | 1002.3 |
| 20260508075954 | 42 | 298 | 0.9 | 5.2 | 0.00 | 0.00 | 0.00 | 90 | 1002.1 |
| 20260508074451 | 42 | 0 | 0.0 | 1.7 | 0.00 | 0.00 | 0.00 | 90 | 1002.0 |
| 20260508073648 | 42 | 9 | 0.0 | 0.0 | 0.00 | 0.00 | 0.00 | 90 | 1001.9 |
| 20260508071447 | 42 | 9 | 0.0 | 1.7 | 0.00 | 0.01 | 0.00 | 89 | 1002.0 |
| 20260508070657 | 42 | 5 | 0.0 | 2.6 | 0.00 | 0.02 | 0.00 | 89 | 1001.9 |
| 20260508064446 | 42 | 9 | 0.0 | 2.6 | 0.00 | 0.04 | 0.00 | 89 | 1001.8 |
| 20260508062941 | 42 | 338 | 0.9 | 3.5 | 0.00 | 0.07 | 0.00 | 90 | 1001.8 |
| 20260508061440 | 42 | 17 | 0.0 | 0.9 | 0.00 | 0.11 | 0.00 | 90 | 1001.8 |
| 20260508060634 | 42 | 17 | 0.0 | 1.7 | 0.00 | 0.13 | 0.00 | 90 | 1001.9 |
| 20260508055146 | 42 | 311 | 0.0 | 0.0 | 0.00 | 0.14 | 0.00 | 90 | 1002.0 |
| 20260508053651 | 42 | 311 | 0.0 | 4.3 | 0.00 | 0.14 | 0.00 | 89 | 1002.0 |
| 20260508051435 | 42 | 17 | 0.9 | 3.5 | 0.00 | 0.15 | 0.00 | 89 | 1002.0 |
| 20260508050633 | 42 | 20 | 0.0 | 1.7 | 0.00 | 0.17 | 0.00 | 89 | 1002.0 |
| 20260508044436 | 42 | 20 | 0.0 | 0.9 | 0.00 | 0.20 | 0.00 | 89 | 1002.1 |
| 20260508042941 | 42 | 20 | 0.0 | 1.7 | 0.00 | 0.22 | 0.00 | 89 | 1002.1 |
| 20260508041435 | 42 | 21 | 0.0 | 0.0 | 0.00 | 0.25 | 0.00 | 89 | 1002.1 |
| 20260508035936 | 42 | 21 | 0.0 | 1.7 | 0.00 | 0.28 | 0.28 | 89 | 1002.0 |
| 20260508034433 | 42 | 21 | 0.0 | 1.7 | 0.00 | 0.29 | 0.28 | 89 | 1001.9 |
| 20260508032934 | 42 | 277 | 0.0 | 2.6 | 0.00 | 0.29 | 0.28 | 89 | 1002.1 |
| 20260508031429 | 42 | 279 | 0.0 | 0.0 | 0.00 | 0.29 | 0.28 | 91 | 1002.1 |
| 20260508030621 | 41 | 279 | 0.0 | 0.0 | 0.00 | 0.29 | 0.28 | 92 | 1002.2 |
| 20260508024428 | 41 | 279 | 0.0 | 0.0 | 0.00 | 0.30 | 0.28 | 91 | 1002.3 |
| 20260508022928 | 41 | 279 | 0.0 | 0.0 | 0.00 | 0.30 | 0.28 | 91 | 1002.4 |
| 20260508022135 | 40 | 279 | 0.0 | 0.0 | 0.00 | 0.31 | 0.28 | 91 | 1002.3 |
| 20260508014428 | 42 | 279 | 0.0 | 0.0 | 0.00 | 0.31 | 0.28 | 88 | 1002.4 |
| 20260508012928 | 42 | 279 | 0.0 | 0.0 | 0.00 | 0.32 | 0.28 | 88 | 1002.4 |
| 20260508011426 | 43 | 279 | 0.0 | 0.9 | 0.00 | 0.32 | 0.28 | 89 | 1002.4 |
| 20260508005926 | 43 | 279 | 0.0 | 0.0 | 0.00 | 0.33 | 0.28 | 88 | 1002.3 |
| 20260508004426 | 44 | 279 | 0.0 | 0.0 | 0.00 | 0.33 | 0.28 | 86 | 1002.4 |
| 20260508002924 | 44 | 279 | 0.0 | 0.9 | 0.00 | 0.35 | 0.28 | 85 | 1002.3 |
| 20260508001425 | 44 | 279 | 0.9 | 6.1 | 0.00 | 0.37 | 0.28 | 84 | 1002.3 |
| 20260507235924 | 46 | 279 | 2.6 | 9.6 | 0.00 | 0.38 | 0.28 | 80 | 1002.2 |
| 20260507235118 | 48 | 319 | 0.0 | 4.3 | 0.00 | 0.39 | 0.28 | 75 | 1001.8 |
| 20260507232924 | 48 | 10 | 0.9 | 5.2 | 0.00 | 0.39 | 0.28 | 74 | 1001.7 |
| 20260507231424 | 48 | 9 | 0.0 | 4.3 | 0.00 | 0.40 | 0.28 | 74 | 1001.9 |
| 20260507225923 | 48 | 309 | 0.0 | 4.3 | 0.00 | 0.40 | 0.28 | 76 | 1001.9 |
| 20260507224424 | 48 | 314 | 0.9 | 5.2 | 0.00 | 0.40 | 0.28 | 77 | 1001.8 |
| 20260507223618 | 48 | 261 | 1.7 | 9.6 | 0.00 | 0.40 | 0.28 | 76 | 1001.7 |
| 20260507221424 | 49 | 5 | 1.7 | 8.7 | 0.00 | 0.40 | 0.28 | 75 | 1001.6 |
| 20260507215929 | 49 | 340 | 2.6 | 11.3 | 0.00 | 0.41 | 0.28 | 76 | 1001.5 |
| 20260507215111 | 48 | 131 | 2.6 | 12.2 | 0.00 | 0.42 | 0.28 | 76 | 1001.4 |
| 20260507212917 | 48 | 30 | 2.6 | 10.4 | 0.00 | 0.43 | 0.28 | 76 | 1001.5 |
| 20260507211418 | 49 | 219 | 2.6 | 11.3 | 0.00 | 0.45 | 0.28 | 72 | 1001.5 |
| 20260507205917 | 49 | 223 | 5.2 | 14.8 | 0.00 | 0.46 | 0.28 | 70 | 1001.2 |
| 20260507204418 | 51 | 265 | 4.3 | 15.6 | 0.00 | 0.48 | 0.28 | 64 | 1000.9 |
| 20260507202917 | 55 | 44 | 5.2 | 20.9 | 0.00 | 0.49 | 0.28 | 57 | 1000.4 |
| 20260507201415 | 56 | 255 | 3.5 | 15.6 | 0.00 | 0.50 | 0.28 | 55 | 999.9 |
| 20260507195916 | 55 | 267 | 2.6 | 8.7 | 0.00 | 0.52 | 0.28 | 56 | 999.9 |
| 20260507194417 | 55 | 14 | 1.7 | 11.3 | 0.00 | 0.54 | 0.28 | 56 | 1000.0 |
| 20260507192918 | 55 | 267 | 0.9 | 13.9 | 0.00 | 0.55 | 0.28 | 54 | 1000.0 |
| 20260507191413 | 54 | 209 | 1.7 | 7.0 | 0.00 | 0.57 | 0.28 | 63 | 1000.0 |
| 20260507190607 | 54 | 165 | 4.3 | 9.6 | 0.00 | 0.59 | 0.28 | 61 | 1000.2 |
| 20260507184407 | 55 | 232 | 2.6 | 9.6 | 0.00 | 0.61 | 0.28 | 61 | 1000.2 |
| 20260507182907 | 53 | 207 | 0.0 | 5.2 | 0.00 | 0.63 | 0.28 | 60 | 1000.4 |
| 20260507182109 | 53 | 32 | 0.0 | 2.6 | 0.00 | 0.65 | 0.28 | 62 | 1000.4 |
| 20260507175906 | 52 | 24 | 0.0 | 3.5 | 0.00 | 0.67 | 0.28 | 65 | 1000.7 |
| 20260507175105 | 51 | 79 | 0.9 | 5.2 | 0.00 | 0.69 | 0.28 | 69 | 1000.8 |
| 20260507172901 | 50 | 348 | 2.6 | 9.6 | 0.00 | 0.71 | 0.28 | 73 | 1001.0 |
| 20260507171402 | 49 | 328 | 4.3 | 12.2 | 0.00 | 0.73 | 0.28 | 78 | 1001.0 |
| 20260507165903 | 52 | 351 | 2.6 | 13.9 | 0.00 | 0.76 | 0.28 | 65 | 1001.2 |
| 20260507165101 | 53 | 0 | 2.6 | 7.8 | 0.00 | 0.78 | 0.28 | 63 | 1000.8 |
| 20260507163556 | 54 | 279 | 1.7 | 5.2 | 0.00 | 0.80 | 0.28 | 62 | 1000.7 |
| 20260507161402 | 55 | 243 | 0.9 | 6.1 | 0.00 | 0.83 | 0.28 | 59 | 1000.6 |
| 20260507155902 | 56 | 225 | 1.7 | 6.1 | 0.00 | 0.84 | 0.28 | 54 | 1000.9 |
| 20260507155048 | 56 | 52 | 0.9 | 4.3 | 0.00 | 0.86 | 0.28 | 61 | 1001.1 |
| 20260507152858 | 55 | 294 | 0.9 | 4.3 | 0.00 | 0.88 | 0.28 | 62 | 1001.2 |
| 20260507151359 | 55 | 320 | 1.7 | 7.0 | 0.00 | 0.90 | 0.28 | 65 | 1001.6 |
| 20260507145858 | 53 | 107 | 1.7 | 4.3 | 0.00 | 0.92 | 0.28 | 68 | 1001.6 |
| 20260507144358 | 53 | 24 | 0.9 | 4.3 | 0.00 | 0.94 | 0.28 | 72 | 1001.6 |
| 20260507142858 | 52 | 234 | 0.9 | 5.2 | 0.00 | 0.97 | 0.28 | 73 | 1001.6 |
| 20260507141356 | 52 | 283 | 0.9 | 5.2 | 0.00 | 0.99 | 0.28 | 74 | 1001.7 |
| 20260507135851 | 51 | 301 | 0.9 | 7.8 | 0.00 | 1.01 | 0.28 | 76 | 1001.9 |
| 20260507135051 | 51 | 257 | 2.6 | 6.1 | 0.00 | 1.03 | 0.28 | 78 | 1002.3 |
| 20260507132852 | 50 | 5 | 1.7 | 5.2 | 0.00 | 1.05 | 0.28 | 77 | 1002.4 |
| 20260507131354 | 49 | 281 | 1.7 | 7.8 | 0.00 | 1.08 | 0.28 | 81 | 1002.3 |
| 20260507125852 | 49 | 5 | 0.9 | 3.5 | 0.00 | 1.11 | 0.28 | 84 | 1002.1 |
| 20260507124352 | 47 | 12 | 0.9 | 4.3 | 0.00 | 1.12 | 0.28 | 87 | 1002.7 |
| 20260507122854 | 45 | 256 | 0.0 | 4.3 | 0.00 | 1.12 | 0.28 | 89 | 1002.3 |
| 20260507121352 | 45 | 282 | 0.9 | 5.2 | 0.00 | 1.12 | 0.28 | 90 | 1002.7 |
| 20260507115852 | 45 | 336 | 0.9 | 5.2 | 0.00 | 1.12 | 0.28 | 92 | 1002.3 |
| 20260507114352 | 44 | 50 | 0.9 | 4.3 | 0.00 | 1.12 | 0.28 | 93 | 1002.3 |
| 20260507112854 | 44 | 281 | 0.9 | 3.5 | 0.00 | 1.12 | 0.28 | 93 | 1002.6 |
| 20260507111354 | 44 | 313 | 0.0 | 6.1 | 0.00 | 1.12 | 0.28 | 93 | 1002.3 |
| 20260507105854 | 43 | 265 | 0.9 | 4.3 | 0.00 | 1.12 | 0.28 | 94 | 1002.5 |
| 20260507104352 | 43 | 289 | 0.0 | 3.5 | 0.00 | 1.12 | 0.28 | 94 | 1002.5 |
| 20260507102851 | 42 | 317 | 0.0 | 1.7 | 0.00 | 1.12 | 0.28 | 94 | 1002.6 |
| 20260507101351 | 42 | 318 | 0.0 | 0.9 | 0.00 | 1.12 | 0.28 | 94 | 1002.6 |
| 20260507095853 | 42 | 321 | 0.0 | 0.0 | 0.00 | 1.12 | 0.28 | 94 | 1002.4 |
| 20260507095055 | 42 | 321 | 0.0 | 0.0 | 0.00 | 1.12 | 0.28 | 94 | 1002.4 |
| 20260507092852 | 42 | 321 | 0.0 | 2.6 | 0.00 | 1.12 | 0.28 | 94 | 1002.4 |
| 20260507091352 | 42 | 311 | 0.0 | 2.6 | 0.00 | 1.12 | 0.28 | 94 | 1002.4 |